sensor_id;sensor_type;location;lat;lon;timestamp;pressure;altitude;pressure_sealevel;temperature
66795;BMP280;53698;52.738;4.752;2022-10-18T00:02:12;102768.41;;;13.79
66795;BMP280;53698;52.738;4.752;2022-10-18T00:04:38;102764.97;;;13.72
66795;BMP280;53698;52.738;4.752;2022-10-18T00:07:03;102764.66;;;13.66
66795;BMP280;53698;52.738;4.752;2022-10-18T00:09:28;102763.25;;;13.58
66795;BMP280;53698;52.738;4.752;2022-10-18T00:11:54;102760.59;;;13.52
66795;BMP280;53698;52.738;4.752;2022-10-18T00:14:19;102760.66;;;13.48
66795;BMP280;53698;52.738;4.752;2022-10-18T00:16:45;102751.38;;;13.42
66795;BMP280;53698;52.738;4.752;2022-10-18T00:19:10;102754.16;;;13.39
66795;BMP280;53698;52.738;4.752;2022-10-18T00:21:35;102756.53;;;13.37
66795;BMP280;53698;52.738;4.752;2022-10-18T00:24:01;102759.78;;;13.32
66795;BMP280;53698;52.738;4.752;2022-10-18T00:26:27;102766.50;;;13.28
66795;BMP280;53698;52.738;4.752;2022-10-18T00:28:57;102777.53;;;13.24
66795;BMP280;53698;52.738;4.752;2022-10-18T00:31:28;102783.84;;;13.22
66795;BMP280;53698;52.738;4.752;2022-10-18T00:33:54;102776.06;;;13.17
66795;BMP280;53698;52.738;4.752;2022-10-18T00:36:20;102779.31;;;13.08
66795;BMP280;53698;52.738;4.752;2022-10-18T00:38:45;102781.38;;;13.05
66795;BMP280;53698;52.738;4.752;2022-10-18T00:41:13;102772.47;;;12.97
66795;BMP280;53698;52.738;4.752;2022-10-18T00:46:16;102773.47;;;12.81
66795;BMP280;53698;52.738;4.752;2022-10-18T00:48:41;102777.09;;;12.74
66795;BMP280;53698;52.738;4.752;2022-10-18T00:51:07;102779.88;;;12.71
66795;BMP280;53698;52.738;4.752;2022-10-18T00:53:32;102776.41;;;12.67
66795;BMP280;53698;52.738;4.752;2022-10-18T00:55:58;102783.50;;;12.65
66795;BMP280;53698;52.738;4.752;2022-10-18T00:58:23;102791.75;;;12.61
66795;BMP280;53698;52.738;4.752;2022-10-18T01:00:48;102789.44;;;12.56
66795;BMP280;53698;52.738;4.752;2022-10-18T01:03:14;102782.03;;;12.54
66795;BMP280;53698;52.738;4.752;2022-10-18T01:05:41;102784.41;;;12.52
66795;BMP280;53698;52.738;4.752;2022-10-18T01:10:41;102783.31;;;12.46
66795;BMP280;53698;52.738;4.752;2022-10-18T01:13:21;102785.31;;;12.42
66795;BMP280;53698;52.738;4.752;2022-10-18T01:18:28;102784.22;;;12.36
66795;BMP280;53698;52.738;4.752;2022-10-18T01:29:10;102790.53;;;12.30
66795;BMP280;53698;52.738;4.752;2022-10-18T01:32:00;102793.28;;;12.30
66795;BMP280;53698;52.738;4.752;2022-10-18T01:34:25;102804.22;;;12.30
66795;BMP280;53698;52.738;4.752;2022-10-18T01:36:50;102797.19;;;12.32
66795;BMP280;53698;52.738;4.752;2022-10-18T01:39:20;102794.78;;;12.34
66795;BMP280;53698;52.738;4.752;2022-10-18T01:41:45;102801.44;;;12.33
66795;BMP280;53698;52.738;4.752;2022-10-18T01:44:14;102796.41;;;12.32
66795;BMP280;53698;52.738;4.752;2022-10-18T01:46:41;102794.06;;;12.30
66795;BMP280;53698;52.738;4.752;2022-10-18T01:49:08;102786.66;;;12.27
66795;BMP280;53698;52.738;4.752;2022-10-18T01:51:33;102794.50;;;12.25
66795;BMP280;53698;52.738;4.752;2022-10-18T01:53:58;102785.09;;;12.26
66795;BMP280;53698;52.738;4.752;2022-10-18T02:01:32;102783.91;;;12.27
66795;BMP280;53698;52.738;4.752;2022-10-18T02:04:06;102793.69;;;12.28
66795;BMP280;53698;52.738;4.752;2022-10-18T02:06:34;102789.00;;;12.29
66795;BMP280;53698;52.738;4.752;2022-10-18T02:09:03;102791.31;;;12.30
66795;BMP280;53698;52.738;4.752;2022-10-18T02:11:30;102802.69;;;12.29
66795;BMP280;53698;52.738;4.752;2022-10-18T02:14:01;102794.50;;;12.25
66795;BMP280;53698;52.738;4.752;2022-10-18T02:19:03;102796.88;;;12.23
66795;BMP280;53698;52.738;4.752;2022-10-18T02:21:29;102792.22;;;12.21
66795;BMP280;53698;52.738;4.752;2022-10-18T02:23:55;102792.66;;;12.16
66795;BMP280;53698;52.738;4.752;2022-10-18T02:26:22;102786.44;;;12.12
66795;BMP280;53698;52.738;4.752;2022-10-18T02:28:47;102791.94;;;12.08
66795;BMP280;53698;52.738;4.752;2022-10-18T02:36:41;102807.38;;;11.92
66795;BMP280;53698;52.738;4.752;2022-10-18T02:39:10;102810.53;;;11.87
66795;BMP280;53698;52.738;4.752;2022-10-18T02:41:38;102803.94;;;11.85
66795;BMP280;53698;52.738;4.752;2022-10-18T02:44:03;102796.50;;;11.82
66795;BMP280;53698;52.738;4.752;2022-10-18T02:46:28;102795.38;;;11.80
66795;BMP280;53698;52.738;4.752;2022-10-18T02:48:54;102787.19;;;11.76
66795;BMP280;53698;52.738;4.752;2022-10-18T02:51:19;102794.28;;;11.74
66795;BMP280;53698;52.738;4.752;2022-10-18T02:53:44;102800.50;;;11.74
66795;BMP280;53698;52.738;4.752;2022-10-18T02:56:09;102804.34;;;11.80
66795;BMP280;53698;52.738;4.752;2022-10-18T02:58:35;102818.00;;;11.84
66795;BMP280;53698;52.738;4.752;2022-10-18T03:01:00;102813.69;;;11.83
66795;BMP280;53698;52.738;4.752;2022-10-18T03:03:25;102818.41;;;11.82
66795;BMP280;53698;52.738;4.752;2022-10-18T03:05:51;102818.81;;;11.81
66795;BMP280;53698;52.738;4.752;2022-10-18T03:08:16;102812.22;;;11.78
66795;BMP280;53698;52.738;4.752;2022-10-18T03:10:42;102815.34;;;11.77
66795;BMP280;53698;52.738;4.752;2022-10-18T03:13:08;102807.94;;;11.74
66795;BMP280;53698;52.738;4.752;2022-10-18T03:15:33;102813.03;;;11.72
66795;BMP280;53698;52.738;4.752;2022-10-18T03:17:58;102808.38;;;11.69
66795;BMP280;53698;52.738;4.752;2022-10-18T03:20:23;102807.63;;;11.65
66795;BMP280;53698;52.738;4.752;2022-10-18T03:22:49;102817.78;;;11.65
66795;BMP280;53698;52.738;4.752;2022-10-18T03:25:14;102818.97;;;11.64
66795;BMP280;53698;52.738;4.752;2022-10-18T03:27:39;102823.69;;;11.60
66795;BMP280;53698;52.738;4.752;2022-10-18T03:30:05;102825.69;;;11.56
66795;BMP280;53698;52.738;4.752;2022-10-18T03:32:30;102810.47;;;11.52
66795;BMP280;53698;52.738;4.752;2022-10-18T03:34:55;102814.75;;;11.53
66795;BMP280;53698;52.738;4.752;2022-10-18T03:37:20;102819.47;;;11.49
66795;BMP280;53698;52.738;4.752;2022-10-18T03:39:46;102818.34;;;11.43
66795;BMP280;53698;52.738;4.752;2022-10-18T03:42:11;102816.09;;;11.35
66795;BMP280;53698;52.738;4.752;2022-10-18T03:44:36;102810.66;;;11.28
66795;BMP280;53698;52.738;4.752;2022-10-18T03:47:01;102813.00;;;11.22
66795;BMP280;53698;52.738;4.752;2022-10-18T03:49:27;102826.69;;;11.19
66795;BMP280;53698;52.738;4.752;2022-10-18T03:51:52;102837.25;;;11.14
66795;BMP280;53698;52.738;4.752;2022-10-18T03:54:17;102831.06;;;11.10
66795;BMP280;53698;52.738;4.752;2022-10-18T03:56:42;102824.81;;;11.09
66795;BMP280;53698;52.738;4.752;2022-10-18T03:59:08;102817.41;;;11.06
66795;BMP280;53698;52.738;4.752;2022-10-18T04:01:33;102819.78;;;11.01
66795;BMP280;53698;52.738;4.752;2022-10-18T04:03:58;102816.66;;;10.96
66795;BMP280;53698;52.738;4.752;2022-10-18T04:06:24;102821.38;;;10.88
66795;BMP280;53698;52.738;4.752;2022-10-18T04:08:49;102822.59;;;10.84
66795;BMP280;53698;52.738;4.752;2022-10-18T04:11:14;102831.59;;;10.81
66795;BMP280;53698;52.738;4.752;2022-10-18T04:13:40;102845.25;;;10.78
66795;BMP280;53698;52.738;4.752;2022-10-18T04:16:05;102849.56;;;10.72
66795;BMP280;53698;52.738;4.752;2022-10-18T04:18:30;102839.03;;;10.67
66795;BMP280;53698;52.738;4.752;2022-10-18T04:20:55;102841.00;;;10.63
66795;BMP280;53698;52.738;4.752;2022-10-18T04:23:21;102840.28;;;10.59
66795;BMP280;53698;52.738;4.752;2022-10-18T04:25:46;102841.03;;;10.56
66795;BMP280;53698;52.738;4.752;2022-10-18T04:28:11;102854.31;;;10.54
66795;BMP280;53698;52.738;4.752;2022-10-18T04:30:36;102867.56;;;10.52
66795;BMP280;53698;52.738;4.752;2022-10-18T04:33:02;102866.03;;;10.51
66795;BMP280;53698;52.738;4.752;2022-10-18T04:35:27;102849.28;;;10.46
66795;BMP280;53698;52.738;4.752;2022-10-18T04:37:53;102852.00;;;10.43
66795;BMP280;53698;52.738;4.752;2022-10-18T04:40:18;102850.44;;;10.42
66795;BMP280;53698;52.738;4.752;2022-10-18T04:42:46;102859.06;;;10.37
66795;BMP280;53698;52.738;4.752;2022-10-18T04:45:11;102859.84;;;10.34
66795;BMP280;53698;52.738;4.752;2022-10-18T04:47:37;102871.94;;;10.33
66795;BMP280;53698;52.738;4.752;2022-10-18T04:50:02;102864.53;;;10.30
66795;BMP280;53698;52.738;4.752;2022-10-18T04:52:27;102861.41;;;10.28
66795;BMP280;53698;52.738;4.752;2022-10-18T04:54:53;102847.75;;;10.28
66795;BMP280;53698;52.738;4.752;2022-10-18T04:57:18;102847.38;;;10.30
66795;BMP280;53698;52.738;4.752;2022-10-18T04:59:44;102863.34;;;10.31
66795;BMP280;53698;52.738;4.752;2022-10-18T05:02:09;102870.78;;;10.34
66795;BMP280;53698;52.738;4.752;2022-10-18T05:04:34;102869.56;;;10.35
66795;BMP280;53698;52.738;4.752;2022-10-18T05:06:59;102870.78;;;10.34
66795;BMP280;53698;52.738;4.752;2022-10-18T05:09:25;102859.44;;;10.32
66795;BMP280;53698;52.738;4.752;2022-10-18T05:11:50;102870.78;;;10.31
66795;BMP280;53698;52.738;4.752;2022-10-18T05:14:15;102864.91;;;10.29
66795;BMP280;53698;52.738;4.752;2022-10-18T05:16:40;102865.28;;;10.27
66795;BMP280;53698;52.738;4.752;2022-10-18T05:19:06;102866.09;;;10.24
66795;BMP280;53698;52.738;4.752;2022-10-18T05:21:31;102878.56;;;10.22
66795;BMP280;53698;52.738;4.752;2022-10-18T05:23:56;102886.34;;;10.20
66795;BMP280;53698;52.738;4.752;2022-10-18T05:26:22;102877.78;;;10.18
66795;BMP280;53698;52.738;4.752;2022-10-18T05:28:50;102877.03;;;10.14
66795;BMP280;53698;52.738;4.752;2022-10-18T05:31:16;102876.25;;;10.10
66795;BMP280;53698;52.738;4.752;2022-10-18T05:33:41;102865.75;;;10.09
66795;BMP280;53698;52.738;4.752;2022-10-18T05:36:06;102873.94;;;10.05
66795;BMP280;53698;52.738;4.752;2022-10-18T05:38:32;102875.88;;;10.01
66795;BMP280;53698;52.738;4.752;2022-10-18T05:40:57;102876.63;;;9.99
66795;BMP280;53698;52.738;4.752;2022-10-18T05:43:23;102877.84;;;9.94
66795;BMP280;53698;52.738;4.752;2022-10-18T05:45:51;102880.16;;;9.89
66795;BMP280;53698;52.738;4.752;2022-10-18T05:48:16;102891.44;;;9.84
66795;BMP280;53698;52.738;4.752;2022-10-18T05:50:42;102906.66;;;9.85
66795;BMP280;53698;52.738;4.752;2022-10-18T05:53:07;102906.66;;;9.82
66795;BMP280;53698;52.738;4.752;2022-10-18T05:55:32;102898.84;;;9.77
66795;BMP280;53698;52.738;4.752;2022-10-18T05:57:58;102903.50;;;9.73
66795;BMP280;53698;52.738;4.752;2022-10-18T06:00:23;102903.47;;;9.63
66795;BMP280;53698;52.738;4.752;2022-10-18T06:02:48;102903.09;;;9.57
66795;BMP280;53698;52.738;4.752;2022-10-18T06:05:13;102903.47;;;9.56
66795;BMP280;53698;52.738;4.752;2022-10-18T06:07:39;102910.50;;;9.57
66795;BMP280;53698;52.738;4.752;2022-10-18T06:10:04;102906.97;;;9.56
66795;BMP280;53698;52.738;4.752;2022-10-18T06:12:29;102915.94;;;9.57
66795;BMP280;53698;52.738;4.752;2022-10-18T06:14:55;102921.75;;;9.55
66795;BMP280;53698;52.738;4.752;2022-10-18T06:17:20;102927.63;;;9.50
66795;BMP280;53698;52.738;4.752;2022-10-18T06:19:45;102915.53;;;9.48
66795;BMP280;53698;52.738;4.752;2022-10-18T06:22:11;102926.03;;;9.49
66795;BMP280;53698;52.738;4.752;2022-10-18T06:24:36;102928.78;;;9.49
66795;BMP280;53698;52.738;4.752;2022-10-18T06:27:01;102928.00;;;9.49
66795;BMP280;53698;52.738;4.752;2022-10-18T06:29:36;102927.19;;;9.48
66795;BMP280;53698;52.738;4.752;2022-10-18T06:32:02;102934.59;;;9.51
66795;BMP280;53698;52.738;4.752;2022-10-18T06:34:27;102936.16;;;9.52
66795;BMP280;53698;52.738;4.752;2022-10-18T06:36:52;102934.59;;;9.51
66795;BMP280;53698;52.738;4.752;2022-10-18T06:39:17;102935.00;;;9.53
66795;BMP280;53698;52.738;4.752;2022-10-18T06:41:43;102940.09;;;9.58
66795;BMP280;53698;52.738;4.752;2022-10-18T06:44:18;102933.88;;;9.61
66795;BMP280;53698;52.738;4.752;2022-10-18T06:46:44;102939.69;;;9.66
66795;BMP280;53698;52.738;4.752;2022-10-18T06:49:10;102940.91;;;9.72
66795;BMP280;53698;52.738;4.752;2022-10-18T06:51:35;102946.75;;;9.78
66795;BMP280;53698;52.738;4.752;2022-10-18T06:54:00;102944.81;;;9.82
66795;BMP280;53698;52.738;4.752;2022-10-18T06:56:26;102944.81;;;9.88
66795;BMP280;53698;52.738;4.752;2022-10-18T06:58:51;102944.06;;;9.98
66795;BMP280;53698;52.738;4.752;2022-10-18T07:01:16;102952.25;;;10.08
66795;BMP280;53698;52.738;4.752;2022-10-18T07:03:42;102951.47;;;10.18
66795;BMP280;53698;52.738;4.752;2022-10-18T07:06:09;102952.63;;;10.24
66795;BMP280;53698;52.738;4.752;2022-10-18T07:08:34;102956.91;;;10.32
66795;BMP280;53698;52.738;4.752;2022-10-18T07:11:00;102956.50;;;10.40
66795;BMP280;53698;52.738;4.752;2022-10-18T07:13:28;102954.19;;;10.49
66795;BMP280;53698;52.738;4.752;2022-10-18T07:18:25;102962.66;;;10.78
66795;BMP280;53698;52.738;4.752;2022-10-18T07:20:50;102959.53;;;10.89
66795;BMP280;53698;52.738;4.752;2022-10-18T07:23:15;102966.09;;;11.09
66795;BMP280;53698;52.738;4.752;2022-10-18T07:25:41;102968.78;;;11.22
66795;BMP280;53698;52.738;4.752;2022-10-18T07:28:06;102958.56;;;11.40
66795;BMP280;53698;52.738;4.752;2022-10-18T07:30:31;102946.59;;;11.80
66795;BMP280;53698;52.738;4.752;2022-10-18T07:32:56;102969.44;;;12.10
66795;BMP280;53698;52.738;4.752;2022-10-18T07:35:22;102973.22;;;12.22
66795;BMP280;53698;52.738;4.752;2022-10-18T07:37:47;102967.25;;;12.38
66795;BMP280;53698;52.738;4.752;2022-10-18T07:40:12;102967.88;;;12.52
66795;BMP280;53698;52.738;4.752;2022-10-18T07:42:37;102971.75;;;12.57
66795;BMP280;53698;52.738;4.752;2022-10-18T07:45:03;102975.59;;;12.67
66795;BMP280;53698;52.738;4.752;2022-10-18T07:47:28;102975.44;;;12.80
66795;BMP280;53698;52.738;4.752;2022-10-18T07:49:53;102981.56;;;12.94
66795;BMP280;53698;52.738;4.752;2022-10-18T07:52:18;102978.28;;;13.06
66795;BMP280;53698;52.738;4.752;2022-10-18T07:54:44;102977.28;;;13.26
66795;BMP280;53698;52.738;4.752;2022-10-18T07:57:09;102991.06;;;13.48
66795;BMP280;53698;52.738;4.752;2022-10-18T07:59:34;102992.38;;;13.66
66795;BMP280;53698;52.738;4.752;2022-10-18T08:02:00;102992.59;;;13.78
66795;BMP280;53698;52.738;4.752;2022-10-18T08:04:25;102997.06;;;13.98
66795;BMP280;53698;52.738;4.752;2022-10-18T08:06:50;102988.81;;;14.21
66795;BMP280;53698;52.738;4.752;2022-10-18T08:09:15;102996.84;;;14.34
66795;BMP280;53698;52.738;4.752;2022-10-18T08:11:41;103000.91;;;14.49
66795;BMP280;53698;52.738;4.752;2022-10-18T08:14:06;103002.91;;;14.67
66795;BMP280;53698;52.738;4.752;2022-10-18T08:16:31;103003.16;;;14.76
66795;BMP280;53698;52.738;4.752;2022-10-18T08:18:57;103005.31;;;14.88
66795;BMP280;53698;52.738;4.752;2022-10-18T08:21:22;103007.44;;;14.99
66795;BMP280;53698;52.738;4.752;2022-10-18T08:23:48;103010.03;;;15.10
66795;BMP280;53698;52.738;4.752;2022-10-18T08:26:15;103010.84;;;15.26
66795;BMP280;53698;52.738;4.752;2022-10-18T08:28:41;103014.53;;;15.38
66795;BMP280;53698;52.738;4.752;2022-10-18T08:31:09;103005.69;;;15.46
66795;BMP280;53698;52.738;4.752;2022-10-18T08:33:35;103012.53;;;15.58
66795;BMP280;53698;52.738;4.752;2022-10-18T08:36:01;103016.28;;;15.67
66795;BMP280;53698;52.738;4.752;2022-10-18T08:38:29;103023.03;;;15.81
66795;BMP280;53698;52.738;4.752;2022-10-18T08:40:55;103015.25;;;15.96
66795;BMP280;53698;52.738;4.752;2022-10-18T08:43:35;103013.03;;;16.06
66795;BMP280;53698;52.738;4.752;2022-10-18T08:46:02;103010.59;;;15.93
66795;BMP280;53698;52.738;4.752;2022-10-18T08:50:53;103032.13;;;16.13
66795;BMP280;53698;52.738;4.752;2022-10-18T08:53:25;103043.66;;;16.08
66795;BMP280;53698;52.738;4.752;2022-10-18T08:55:54;103035.84;;;16.07
66795;BMP280;53698;52.738;4.752;2022-10-18T08:58:22;103031.97;;;16.20
66795;BMP280;53698;52.738;4.752;2022-10-18T09:03:31;103039.38;;;16.23
66795;BMP280;53698;52.738;4.752;2022-10-18T09:09:17;103040.94;;;16.55
66795;BMP280;53698;52.738;4.752;2022-10-18T09:21:50;103027.16;;;16.70
66795;BMP280;53698;52.738;4.752;2022-10-18T09:24:26;103029.53;;;16.99
66795;BMP280;53698;52.738;4.752;2022-10-18T09:27:04;103035.06;;;16.99
66795;BMP280;53698;52.738;4.752;2022-10-18T09:29:53;103040.75;;;16.93
66795;BMP280;53698;52.738;4.752;2022-10-18T09:35:04;103027.94;;;17.14
66795;BMP280;53698;52.738;4.752;2022-10-18T09:37:35;103043.31;;;17.27
66795;BMP280;53698;52.738;4.752;2022-10-18T09:40:23;103050.25;;;17.47
66795;BMP280;53698;52.738;4.752;2022-10-18T09:42:52;103050.25;;;17.47
66795;BMP280;53698;52.738;4.752;2022-10-18T09:47:46;103056.94;;;17.62
66795;BMP280;53698;52.738;4.752;2022-10-18T09:53:03;103062.56;;;17.70
66795;BMP280;53698;52.738;4.752;2022-10-18T09:55:32;103054.63;;;17.72
66795;BMP280;53698;52.738;4.752;2022-10-18T09:57:59;103054.66;;;17.84
66795;BMP280;53698;52.738;4.752;2022-10-18T10:00:30;103060.03;;;17.76
66795;BMP280;53698;52.738;4.752;2022-10-18T10:02:56;103060.28;;;17.81
66795;BMP280;53698;52.738;4.752;2022-10-18T10:05:22;103062.81;;;17.76
66795;BMP280;53698;52.738;4.752;2022-10-18T10:07:48;103065.41;;;17.95
66795;BMP280;53698;52.738;4.752;2022-10-18T10:12:41;103079.22;;;18.07
66795;BMP280;53698;52.738;4.752;2022-10-18T10:15:23;103076.81;;;18.21
66795;BMP280;53698;52.738;4.752;2022-10-18T10:18:01;103082.88;;;18.40
66795;BMP280;53698;52.738;4.752;2022-10-18T10:20:41;103080.00;;;18.56
66795;BMP280;53698;52.738;4.752;2022-10-18T10:23:08;103071.94;;;18.73
66795;BMP280;53698;52.738;4.752;2022-10-18T10:25:34;103076.56;;;18.76
66795;BMP280;53698;52.738;4.752;2022-10-18T10:28:04;103078.56;;;18.76
66795;BMP280;53698;52.738;4.752;2022-10-18T10:30:31;103072.38;;;18.72
66795;BMP280;53698;52.738;4.752;2022-10-18T10:32:57;103075.34;;;18.77
66795;BMP280;53698;52.738;4.752;2022-10-18T10:35:32;103081.31;;;18.88
66795;BMP280;53698;52.738;4.752;2022-10-18T10:37:58;103089.28;;;18.86
66795;BMP280;53698;52.738;4.752;2022-10-18T10:45:18;103086.50;;;18.86
66795;BMP280;53698;52.738;4.752;2022-10-18T10:47:44;103089.84;;;18.81
66795;BMP280;53698;52.738;4.752;2022-10-18T10:50:09;103098.03;;;18.85
66795;BMP280;53698;52.738;4.752;2022-10-18T10:52:36;103087.66;;;19.09
66795;BMP280;53698;52.738;4.752;2022-10-18T10:55:02;103093.47;;;19.23
66795;BMP280;53698;52.738;4.752;2022-10-18T10:57:27;103096.84;;;19.39
66795;BMP280;53698;52.738;4.752;2022-10-18T10:59:54;103098.25;;;19.23
66795;BMP280;53698;52.738;4.752;2022-10-18T11:02:25;103096.44;;;19.29
66795;BMP280;53698;52.738;4.752;2022-10-18T11:04:53;103103.56;;;19.51
66795;BMP280;53698;52.738;4.752;2022-10-18T11:07:35;103112.31;;;19.49
66795;BMP280;53698;52.738;4.752;2022-10-18T11:12:44;103109.69;;;19.46
66795;BMP280;53698;52.738;4.752;2022-10-18T11:25:14;103106.72;;;19.28
66795;BMP280;53698;52.738;4.752;2022-10-18T11:32:46;103101.56;;;20.22
66795;BMP280;53698;52.738;4.752;2022-10-18T11:35:28;103103.31;;;20.67
66795;BMP280;53698;52.738;4.752;2022-10-18T11:40:40;103114.09;;;21.39
66795;BMP280;53698;52.738;4.752;2022-10-18T11:43:12;103115.34;;;21.46
66795;BMP280;53698;52.738;4.752;2022-10-18T12:03:53;103078.66;;;22.81
66795;BMP280;53698;52.738;4.752;2022-10-18T12:06:23;103081.50;;;22.63
66795;BMP280;53698;52.738;4.752;2022-10-18T12:08:53;103078.50;;;23.58
66795;BMP280;53698;52.738;4.752;2022-10-18T12:11:21;103069.50;;;24.86
66795;BMP280;53698;52.738;4.752;2022-10-18T12:13:52;103053.88;;;25.83
66795;BMP280;53698;52.738;4.752;2022-10-18T12:16:21;103061.06;;;25.20
66795;BMP280;53698;52.738;4.752;2022-10-18T12:18:53;103078.88;;;23.51
66795;BMP280;53698;52.738;4.752;2022-10-18T12:21:20;103084.72;;;22.71
66795;BMP280;53698;52.738;4.752;2022-10-18T12:23:50;103069.09;;;24.12
66795;BMP280;53698;52.738;4.752;2022-10-18T12:26:16;103064.50;;;25.29
66795;BMP280;53698;52.738;4.752;2022-10-18T12:31:12;103069.22;;;22.78
66795;BMP280;53698;52.738;4.752;2022-10-18T12:33:42;103073.16;;;22.32
66795;BMP280;53698;52.738;4.752;2022-10-18T12:38:38;103072.53;;;22.68
66795;BMP280;53698;52.738;4.752;2022-10-18T12:41:05;103077.38;;;22.59
66795;BMP280;53698;52.738;4.752;2022-10-18T12:43:32;103070.38;;;22.63
66795;BMP280;53698;52.738;4.752;2022-10-18T12:46:02;103082.31;;;23.46
66795;BMP280;53698;52.738;4.752;2022-10-18T12:50:57;103084.38;;;22.55
66795;BMP280;53698;52.738;4.752;2022-10-18T12:53:26;103086.66;;;21.41
66795;BMP280;53698;52.738;4.752;2022-10-18T12:55:52;103069.94;;;22.88
66795;BMP280;53698;52.738;4.752;2022-10-18T12:58:30;103068.78;;;22.71
66795;BMP280;53698;52.738;4.752;2022-10-18T13:00:57;103074.72;;;21.49
66795;BMP280;53698;52.738;4.752;2022-10-18T13:16:24;103050.81;;;26.41
66795;BMP280;53698;52.738;4.752;2022-10-18T13:18:52;103044.81;;;27.05
66795;BMP280;53698;52.738;4.752;2022-10-18T13:21:31;103039.97;;;27.05
66795;BMP280;53698;52.738;4.752;2022-10-18T13:24:08;103062.00;;;24.45
66795;BMP280;53698;52.738;4.752;2022-10-18T13:29:08;103050.00;;;25.31
66795;BMP280;53698;52.738;4.752;2022-10-18T13:31:42;103053.47;;;25.70
66795;BMP280;53698;52.738;4.752;2022-10-18T13:36:44;103042.41;;;26.05
66795;BMP280;53698;52.738;4.752;2022-10-18T13:39:19;103044.75;;;26.18
66795;BMP280;53698;52.738;4.752;2022-10-18T13:44:26;103066.97;;;23.79
66795;BMP280;53698;52.738;4.752;2022-10-18T13:56:51;103079.00;;;23.71
66795;BMP280;53698;52.738;4.752;2022-10-18T13:59:31;103068.31;;;23.83
66795;BMP280;53698;52.738;4.752;2022-10-18T14:02:22;103065.13;;;23.62
66795;BMP280;53698;52.738;4.752;2022-10-18T14:07:23;103062.41;;;23.02
66795;BMP280;53698;52.738;4.752;2022-10-18T14:09:50;103078.34;;;22.56
66795;BMP280;53698;52.738;4.752;2022-10-18T14:15:08;103064.94;;;22.37
66795;BMP280;53698;52.738;4.752;2022-10-18T14:22:54;103065.09;;;22.74
66795;BMP280;53698;52.738;4.752;2022-10-18T14:25:26;103067.13;;;21.93
66795;BMP280;53698;52.738;4.752;2022-10-18T14:33:24;103089.34;;;20.11
66795;BMP280;53698;52.738;4.752;2022-10-18T14:36:04;103098.69;;;19.54
66795;BMP280;53698;52.738;4.752;2022-10-18T14:38:31;103096.53;;;19.04
66795;BMP280;53698;52.738;4.752;2022-10-18T14:41:13;103090.47;;;18.97
66795;BMP280;53698;52.738;4.752;2022-10-18T14:43:42;103093.91;;;18.65
66795;BMP280;53698;52.738;4.752;2022-10-18T14:46:08;103107.44;;;18.26
66795;BMP280;53698;52.738;4.752;2022-10-18T14:48:34;103096.38;;;18.02
66795;BMP280;53698;52.738;4.752;2022-10-18T14:50:59;103103.66;;;17.68
66795;BMP280;53698;52.738;4.752;2022-10-18T14:53:32;103098.47;;;17.70
66795;BMP280;53698;52.738;4.752;2022-10-18T14:56:00;103094.44;;;17.59
66795;BMP280;53698;52.738;4.752;2022-10-18T14:58:28;103091.88;;;17.52
66795;BMP280;53698;52.738;4.752;2022-10-18T15:00:54;103099.59;;;17.45
66795;BMP280;53698;52.738;4.752;2022-10-18T15:03:19;103097.91;;;17.35
66795;BMP280;53698;52.738;4.752;2022-10-18T15:05:55;103095.53;;;17.22
66795;BMP280;53698;52.738;4.752;2022-10-18T15:08:20;103109.34;;;17.22
66795;BMP280;53698;52.738;4.752;2022-10-18T15:10:47;103099.25;;;17.15
66795;BMP280;53698;52.738;4.752;2022-10-18T15:13:12;103100.19;;;17.09
66795;BMP280;53698;52.738;4.752;2022-10-18T15:15:38;103107.78;;;17.05
66795;BMP280;53698;52.738;4.752;2022-10-18T15:18:04;103104.19;;;16.93
66795;BMP280;53698;52.738;4.752;2022-10-18T15:20:31;103114.31;;;16.80
66795;BMP280;53698;52.738;4.752;2022-10-18T15:25:41;103116.31;;;16.80
66795;BMP280;53698;52.738;4.752;2022-10-18T15:28:26;103107.72;;;16.78
66795;BMP280;53698;52.738;4.752;2022-10-18T15:30:52;103102.00;;;16.84
66795;BMP280;53698;52.738;4.752;2022-10-18T15:33:21;103091.97;;;16.94
66795;BMP280;53698;52.738;4.752;2022-10-18T15:35:47;103092.47;;;16.89
66795;BMP280;53698;52.738;4.752;2022-10-18T15:38:13;103103.66;;;16.82
66795;BMP280;53698;52.738;4.752;2022-10-18T15:40:39;103110.53;;;16.74
66795;BMP280;53698;52.738;4.752;2022-10-18T15:43:31;103111.84;;;16.70
66795;BMP280;53698;52.738;4.752;2022-10-18T15:45:57;103107.97;;;16.67
66795;BMP280;53698;52.738;4.752;2022-10-18T15:48:24;103114.19;;;16.71
66795;BMP280;53698;52.738;4.752;2022-10-18T15:50:53;103117.81;;;16.68
66795;BMP280;53698;52.738;4.752;2022-10-18T15:55:46;103114.41;;;16.46
66795;BMP280;53698;52.738;4.752;2022-10-18T15:58:18;103115.34;;;16.39
66795;BMP280;53698;52.738;4.752;2022-10-18T16:00:45;103115.75;;;16.22
66795;BMP280;53698;52.738;4.752;2022-10-18T16:03:10;103119.94;;;16.11
66795;BMP280;53698;52.738;4.752;2022-10-18T16:05:36;103120.44;;;16.06
66795;BMP280;53698;52.738;4.752;2022-10-18T16:08:02;103128.78;;;16.03
66795;BMP280;53698;52.738;4.752;2022-10-18T16:10:27;103122.66;;;15.96
66795;BMP280;53698;52.738;4.752;2022-10-18T16:12:53;103123.97;;;15.88
66795;BMP280;53698;52.738;4.752;2022-10-18T16:15:18;103127.66;;;15.81
66795;BMP280;53698;52.738;4.752;2022-10-18T16:17:49;103124.97;;;15.78
66795;BMP280;53698;52.738;4.752;2022-10-18T16:20:24;103123.56;;;15.70
66795;BMP280;53698;52.738;4.752;2022-10-18T16:22:50;103128.41;;;15.63
66795;BMP280;53698;52.738;4.752;2022-10-18T16:25:16;103123.91;;;15.53
66795;BMP280;53698;52.738;4.752;2022-10-18T16:27:41;103125.56;;;15.47
66795;BMP280;53698;52.738;4.752;2022-10-18T16:30:10;103127.69;;;15.40
66795;BMP280;53698;52.738;4.752;2022-10-18T16:32:37;103131.63;;;15.39
66795;BMP280;53698;52.738;4.752;2022-10-18T16:35:02;103142.63;;;15.39
66795;BMP280;53698;52.738;4.752;2022-10-18T16:37:27;103148.56;;;15.38
66795;BMP280;53698;52.738;4.752;2022-10-18T16:39:52;103154.41;;;15.40
66795;BMP280;53698;52.738;4.752;2022-10-18T16:42:18;103155.19;;;15.40